createdAt,value
2017-09-14T00:00:09.002Z,92.20
2017-09-14T00:02:38.470Z,92.00
2017-09-14T00:05:08.505Z,92.30
2017-09-14T00:07:37.766Z,92.30
2017-09-14T00:10:07.104Z,92.00
2017-09-14T00:12:36.327Z,92.00
2017-09-14T00:15:05.573Z,91.80
2017-09-14T00:17:34.900Z,91.80
2017-09-14T00:20:04.179Z,91.70
2017-09-14T00:22:33.475Z,91.80
2017-09-14T00:25:02.772Z,91.60
2017-09-14T00:27:32.078Z,91.70
2017-09-14T00:30:01.368Z,91.60
2017-09-14T00:32:30.618Z,91.80
2017-09-14T00:34:59.873Z,91.30
2017-09-14T00:37:30.675Z,91.50
2017-09-14T00:39:59.930Z,91.40
2017-09-14T00:42:29.337Z,91.30
2017-09-14T00:44:59.397Z,91.40
2017-09-14T00:47:28.650Z,91.40
2017-09-14T00:49:57.960Z,91.30
2017-09-14T00:52:27.351Z,91.20
2017-09-14T00:54:57.470Z,91.60
2017-09-14T00:57:27.505Z,91.80
2017-09-14T00:59:56.774Z,91.80
2017-09-14T01:02:26.042Z,91.90
2017-09-14T01:04:55.303Z,92.20
2017-09-14T01:07:24.675Z,92.30
2017-09-14T01:09:53.938Z,92.20
2017-09-14T01:12:23.186Z,92.30
2017-09-14T01:14:52.525Z,92.40
2017-09-14T01:17:22.455Z,92.20
2017-09-14T01:19:51.930Z,92.10
2017-09-14T01:22:21.948Z,91.90
2017-09-14T01:24:51.370Z,91.90
2017-09-14T01:27:21.407Z,92.00
2017-09-14T01:29:50.654Z,92.00
2017-09-14T01:32:19.905Z,92.10
2017-09-14T01:34:49.191Z,91.30
2017-09-14T01:37:18.696Z,91.30
2017-09-14T01:39:48.170Z,91.60
2017-09-14T01:42:17.474Z,91.40
2017-09-14T01:44:46.715Z,91.20
2017-09-14T01:47:15.982Z,91.50
2017-09-14T01:49:45.225Z,91.30
2017-09-14T01:52:14.493Z,91.30
2017-09-14T01:54:44.494Z,91.20
2017-09-14T01:57:13.741Z,91.20
2017-09-14T01:59:43.196Z,91.20
2017-09-14T02:02:12.435Z,91.30
2017-09-14T02:04:41.762Z,91.50
2017-09-14T02:07:10.999Z,91.80
2017-09-14T02:09:40.254Z,91.90
2017-09-14T02:12:09.522Z,91.90
2017-09-14T02:14:38.816Z,91.90
2017-09-14T02:17:08.841Z,91.80
2017-09-14T02:19:38.081Z,91.80
2017-09-14T02:22:07.332Z,91.80
2017-09-14T02:24:36.578Z,91.80
2017-09-14T02:27:05.839Z,91.80
2017-09-14T02:29:35.812Z,91.80
2017-09-14T02:32:05.077Z,91.80
2017-09-14T02:34:34.320Z,91.70
2017-09-14T02:37:03.567Z,91.50
2017-09-14T02:39:33.592Z,91.30
2017-09-14T02:42:02.842Z,91.30
2017-09-14T02:44:32.270Z,91.30
2017-09-14T02:47:01.533Z,91.20
2017-09-14T02:49:31.506Z,91.90
2017-09-14T02:52:00.774Z,91.60
2017-09-14T02:54:30.024Z,91.70
2017-09-14T02:56:59.286Z,91.90
2017-09-14T02:59:28.523Z,92.10
2017-09-14T03:01:57.782Z,91.90
2017-09-14T03:04:27.030Z,91.80
2017-09-14T03:06:56.297Z,92.00
2017-09-14T03:09:25.685Z,92.20
2017-09-14T03:11:55.015Z,92.50
2017-09-14T03:14:25.040Z,91.60
2017-09-14T03:16:54.426Z,91.60
2017-09-14T03:19:24.463Z,91.80
2017-09-14T03:21:53.710Z,91.80
2017-09-14T03:24:22.941Z,91.70
2017-09-14T03:26:53.053Z,91.10
2017-09-14T03:29:22.298Z,91.10
2017-09-14T03:31:51.561Z,91.00
2017-09-14T03:34:20.890Z,91.00
2017-09-14T03:36:50.149Z,91.10
2017-09-14T03:39:19.440Z,91.20
2017-09-14T03:41:48.996Z,91.30
2017-09-14T03:44:18.242Z,91.20
2017-09-14T03:46:47.486Z,91.20
2017-09-14T03:49:17.598Z,91.20
2017-09-14T03:51:47.623Z,90.90
2017-09-14T03:54:16.874Z,90.90
2017-09-14T03:56:46.119Z,91.00
2017-09-14T03:59:16.461Z,90.80
2017-09-14T04:01:46.474Z,90.60
2017-09-14T04:04:15.788Z,90.60
2017-09-14T04:06:45.026Z,90.60
2017-09-14T04:09:14.274Z,90.60
2017-09-14T04:11:43.759Z,90.40
2017-09-14T04:14:12.998Z,90.70
2017-09-14T04:16:42.365Z,90.30
2017-09-14T04:19:11.594Z,90.60
2017-09-14T04:21:40.859Z,90.90
2017-09-14T04:24:10.106Z,91.00
2017-09-14T04:26:39.432Z,91.10
2017-09-14T04:29:08.710Z,91.20
2017-09-14T04:31:37.992Z,91.40
2017-09-14T04:34:07.291Z,91.10
2017-09-14T04:36:36.790Z,91.30
2017-09-14T04:39:06.039Z,91.20
2017-09-14T04:41:35.373Z,91.20
2017-09-14T04:44:04.639Z,90.60
2017-09-14T04:46:33.910Z,90.70
2017-09-14T04:49:03.179Z,90.80
2017-09-14T04:51:32.475Z,91.10
2017-09-14T04:54:01.715Z,91.10
2017-09-14T04:56:30.984Z,90.80
2017-09-14T04:59:00.994Z,91.10
2017-09-14T05:01:30.273Z,91.00
2017-09-14T05:03:59.541Z,91.20
2017-09-14T05:06:28.786Z,91.20
2017-09-14T05:08:58.042Z,91.20
2017-09-14T05:11:27.315Z,91.30
2017-09-14T05:13:56.562Z,90.80
2017-09-14T05:16:25.835Z,90.50
2017-09-14T05:18:55.115Z,90.30
2017-09-14T05:21:25.167Z,90.70
2017-09-14T05:23:54.431Z,91.00
2017-09-14T05:26:23.710Z,90.30
2017-09-14T05:28:53.122Z,90.40
2017-09-14T05:31:23.229Z,91.20
2017-09-14T05:33:52.569Z,90.80
2017-09-14T05:36:22.062Z,91.00
2017-09-14T05:38:52.097Z,90.20
2017-09-14T05:41:21.343Z,90.20
2017-09-14T05:43:50.598Z,90.40
2017-09-14T05:46:19.866Z,90.50
2017-09-14T05:48:49.962Z,90.60
2017-09-14T05:51:19.214Z,90.50
2017-09-14T05:53:48.469Z,89.70
2017-09-14T05:56:17.705Z,90.00
2017-09-14T05:58:47.757Z,90.10
2017-09-14T06:01:16.994Z,90.20
2017-09-14T06:03:46.273Z,90.30
2017-09-14T06:06:15.713Z,90.90
2017-09-14T06:08:44.965Z,90.10
2017-09-14T06:11:14.314Z,89.40
2017-09-14T06:13:43.620Z,90.00
2017-09-14T06:16:12.922Z,90.10
2017-09-14T06:18:42.194Z,90.40
2017-09-14T06:21:11.441Z,90.30
2017-09-14T06:23:40.722Z,90.70
2017-09-14T06:26:09.960Z,90.70
2017-09-14T06:28:39.230Z,90.80
2017-09-14T06:31:08.747Z,90.90
2017-09-14T06:33:38.925Z,91.30
2017-09-14T06:36:08.165Z,91.30
2017-09-14T06:38:37.563Z,91.40
2017-09-14T06:41:06.815Z,91.50
2017-09-14T06:43:36.802Z,91.30
2017-09-14T06:46:06.049Z,91.50
2017-09-14T06:48:35.318Z,91.20
2017-09-14T06:51:04.570Z,91.20
2017-09-14T06:53:33.847Z,91.00
2017-09-14T06:56:03.090Z,91.00
2017-09-14T06:58:32.363Z,91.10
2017-09-14T07:01:01.630Z,90.90
2017-09-14T07:03:31.010Z,90.90
2017-09-14T07:06:00.221Z,91.20
2017-09-14T07:08:29.470Z,90.90
2017-09-14T07:10:58.750Z,90.90
2017-09-14T07:13:28.068Z,90.90
2017-09-14T07:15:57.307Z,91.20
2017-09-14T07:18:26.686Z,91.20
2017-09-14T07:20:55.926Z,91.20
2017-09-14T07:23:25.174Z,91.30
2017-09-14T07:25:54.439Z,91.30
2017-09-14T07:28:23.910Z,91.20
2017-09-14T07:30:53.942Z,91.60
2017-09-14T07:33:23.209Z,91.60
2017-09-14T07:35:53.987Z,91.30
2017-09-14T07:38:23.226Z,91.30
2017-09-14T07:40:52.503Z,91.80
2017-09-14T07:43:21.887Z,91.70
2017-09-14T07:45:51.106Z,91.50
2017-09-14T07:48:20.467Z,91.20
2017-09-14T07:50:49.786Z,91.00
2017-09-14T07:53:19.174Z,91.30
2017-09-14T07:55:49.199Z,91.40
2017-09-14T07:58:18.469Z,91.40
2017-09-14T08:00:47.715Z,91.70
2017-09-14T08:03:17.155Z,91.50
2017-09-14T08:05:47.161Z,91.80
2017-09-14T08:08:16.398Z,91.30
2017-09-14T08:10:45.935Z,91.20
2017-09-14T08:13:15.946Z,91.50
2017-09-14T08:15:45.190Z,91.50
2017-09-14T08:18:14.451Z,91.70
2017-09-14T08:20:44.471Z,91.80
2017-09-14T08:23:13.738Z,91.80
2017-09-14T08:25:42.994Z,92.10
2017-09-14T08:28:12.241Z,92.20
2017-09-14T08:30:41.499Z,92.10
2017-09-14T08:33:10.747Z,92.20
2017-09-14T08:35:41.526Z,92.20
2017-09-14T08:38:10.759Z,92.20
2017-09-14T08:40:40.034Z,91.60
2017-09-14T08:43:09.285Z,91.60
2017-09-14T08:45:38.534Z,91.70
2017-09-14T08:48:07.798Z,91.10
2017-09-14T08:50:37.044Z,90.90
2017-09-14T08:53:06.352Z,91.20
2017-09-14T08:55:35.606Z,90.90
2017-09-14T08:58:04.899Z,90.90
2017-09-14T09:00:34.130Z,90.90
2017-09-14T09:03:03.400Z,91.00
2017-09-14T09:05:32.797Z,91.20
2017-09-14T09:08:02.197Z,91.10
2017-09-14T09:10:31.469Z,91.20
2017-09-14T09:13:00.750Z,90.90
2017-09-14T09:15:30.013Z,91.00
2017-09-14T09:18:00.048Z,91.20
2017-09-14T09:20:29.331Z,91.20
2017-09-14T09:22:58.658Z,91.20
2017-09-14T09:25:27.926Z,91.40
2017-09-14T09:27:57.181Z,91.30
2017-09-14T09:30:26.486Z,91.10
2017-09-14T09:32:55.727Z,90.40
2017-09-14T09:35:25.059Z,90.40
2017-09-14T09:37:54.290Z,90.60
2017-09-14T09:40:24.664Z,90.40
2017-09-14T09:42:54.695Z,90.00
2017-09-14T09:45:24.098Z,90.00
2017-09-14T09:47:54.207Z,89.50
2017-09-14T09:50:24.222Z,88.70
2017-09-14T09:52:53.507Z,88.70
2017-09-14T09:55:22.778Z,85.80
2017-09-14T09:57:52.020Z,84.00
2017-09-14T10:00:21.282Z,81.60
2017-09-14T10:02:50.615Z,79.10
2017-09-14T10:05:19.875Z,78.50
2017-09-14T10:07:49.143Z,79.80
2017-09-14T10:10:18.384Z,76.70
2017-09-14T10:12:47.638Z,76.10
2017-09-14T10:15:17.743Z,76.70
2017-09-14T10:17:47.006Z,76.60
2017-09-14T10:20:16.262Z,76.10
2017-09-14T10:22:45.526Z,76.60
2017-09-14T10:25:14.804Z,76.60
2017-09-14T10:27:44.263Z,72.90
2017-09-14T10:30:14.272Z,71.10
2017-09-14T10:32:44.311Z,71.70
2017-09-14T10:35:14.418Z,68.90
2017-09-14T10:37:44.422Z,63.90
2017-09-14T10:40:15.291Z,61.20
2017-09-14T10:42:44.529Z,61.10
2017-09-14T10:45:13.794Z,61.20
2017-09-14T10:47:43.053Z,63.60
2017-09-14T10:50:12.465Z,65.90
2017-09-14T10:52:41.738Z,67.00
2017-09-14T10:55:11.000Z,70.30
2017-09-14T10:57:40.383Z,70.20
2017-09-14T11:00:10.419Z,69.80
2017-09-14T11:02:39.683Z,69.70
2017-09-14T11:05:08.930Z,67.80
2017-09-14T11:07:38.347Z,65.00
2017-09-14T11:10:07.682Z,65.60
2017-09-14T11:12:37.048Z,65.70
2017-09-14T11:15:06.332Z,63.50
2017-09-14T11:17:36.347Z,63.90
2017-09-14T11:20:05.602Z,63.90
2017-09-14T11:22:34.851Z,63.20
2017-09-14T11:25:04.137Z,58.80
2017-09-14T11:27:34.163Z,58.60
2017-09-14T11:30:03.425Z,58.50
2017-09-14T11:32:32.706Z,59.80
2017-09-14T11:35:02.078Z,59.50
2017-09-14T11:37:31.316Z,62.60
2017-09-14T11:40:00.574Z,64.60
2017-09-14T11:42:29.973Z,67.10
2017-09-14T11:44:59.240Z,65.70
2017-09-14T11:47:28.502Z,68.90
2017-09-14T11:49:58.002Z,69.20
2017-09-14T11:52:27.275Z,71.90
2017-09-14T11:54:57.390Z,70.70
2017-09-14T11:57:27.395Z,73.30
2017-09-14T11:59:56.849Z,73.20
2017-09-14T12:02:26.077Z,71.50
2017-09-14T12:04:55.406Z,71.60
2017-09-14T12:07:24.836Z,73.20
2017-09-14T12:09:54.107Z,74.70
2017-09-14T12:12:23.366Z,71.00
2017-09-14T12:14:52.627Z,69.60
2017-09-14T12:17:22.692Z,70.10
2017-09-14T12:19:51.947Z,70.10
2017-09-14T12:22:21.203Z,70.40
2017-09-14T12:24:50.437Z,68.10
2017-09-14T12:27:20.773Z,68.40
2017-09-14T12:29:50.170Z,68.40
2017-09-14T12:32:19.578Z,68.30
2017-09-14T12:34:49.603Z,70.90
2017-09-14T12:37:18.879Z,70.80
2017-09-14T12:39:48.138Z,69.10
2017-09-14T12:42:17.414Z,67.90
2017-09-14T12:44:47.415Z,67.60
2017-09-14T12:47:16.701Z,67.50
2017-09-14T12:49:46.726Z,66.70
2017-09-14T12:52:16.023Z,66.60
2017-09-14T12:54:45.400Z,67.50
2017-09-14T12:57:14.635Z,66.00
2017-09-14T12:59:44.696Z,65.60
2017-09-14T13:02:13.930Z,65.50
2017-09-14T13:04:43.197Z,65.70
2017-09-14T13:07:12.477Z,65.20
2017-09-14T13:09:42.512Z,64.60
2017-09-14T13:12:11.766Z,64.60
2017-09-14T13:14:41.022Z,64.90
2017-09-14T13:17:10.311Z,66.30
2017-09-14T13:19:39.546Z,65.90
2017-09-14T13:22:08.827Z,66.00
2017-09-14T13:24:38.072Z,65.50
2017-09-14T13:27:07.361Z,66.60
2017-09-14T13:29:36.617Z,66.60
2017-09-14T13:32:06.030Z,68.00
2017-09-14T13:34:35.318Z,67.50
2017-09-14T13:37:04.593Z,67.20
2017-09-14T13:39:33.880Z,66.20
2017-09-14T13:42:03.420Z,66.30
2017-09-14T13:44:32.677Z,66.30
2017-09-14T13:47:02.023Z,68.30
2017-09-14T13:49:31.263Z,65.30
2017-09-14T13:52:00.710Z,67.20
2017-09-14T13:54:30.778Z,64.90
2017-09-14T13:57:00.130Z,64.80
2017-09-14T13:59:29.626Z,64.80
2017-09-14T14:01:59.670Z,63.60
2017-09-14T14:04:28.938Z,63.40
2017-09-14T14:06:58.191Z,64.30
2017-09-14T14:09:27.450Z,61.30
2017-09-14T14:11:57.500Z,64.50
2017-09-14T14:14:26.751Z,64.50
2017-09-14T14:16:56.807Z,61.60
2017-09-14T14:19:26.825Z,62.20
2017-09-14T14:21:56.082Z,62.20
2017-09-14T14:24:25.349Z,59.00
2017-09-14T14:26:54.630Z,57.30
2017-09-14T14:29:23.923Z,56.80
2017-09-14T14:31:54.055Z,56.60
2017-09-14T14:34:23.331Z,56.60
2017-09-14T14:36:52.595Z,56.60
2017-09-14T14:39:22.618Z,57.20
2017-09-14T14:41:51.900Z,58.50
2017-09-14T14:44:21.163Z,57.80
2017-09-14T14:46:51.179Z,59.60
2017-09-14T14:49:20.430Z,59.50
2017-09-14T14:51:49.683Z,57.10
2017-09-14T14:54:19.695Z,57.40
2017-09-14T14:56:48.980Z,57.30
2017-09-14T14:59:18.230Z,58.70
2017-09-14T15:01:47.478Z,57.60
2017-09-14T15:04:16.761Z,56.70
2017-09-14T15:06:46.004Z,56.90
2017-09-14T15:09:15.283Z,56.60
2017-09-14T15:11:44.755Z,58.20
2017-09-14T15:14:14.033Z,57.00
2017-09-14T15:16:43.319Z,57.60
2017-09-14T15:19:12.575Z,58.50
2017-09-14T15:21:41.825Z,57.60
2017-09-14T15:24:11.114Z,57.10
2017-09-14T15:26:41.171Z,56.80
2017-09-14T15:29:10.446Z,56.80
2017-09-14T15:31:39.694Z,56.20
2017-09-14T15:34:08.967Z,55.80
2017-09-14T15:36:38.256Z,56.10
2017-09-14T15:39:13.050Z,55.80
2017-09-14T15:41:44.122Z,56.60
2017-09-14T15:44:19.554Z,56.10
2017-09-14T15:46:49.575Z,56.00
2017-09-14T15:49:24.829Z,56.00
2017-09-14T15:51:54.071Z,56.00
2017-09-14T15:54:23.333Z,55.80
2017-09-14T15:56:52.609Z,55.90
2017-09-14T15:59:22.644Z,57.10
2017-09-14T16:01:51.874Z,57.00
2017-09-14T16:04:21.128Z,57.70
2017-09-14T16:06:51.191Z,58.50
2017-09-14T16:09:20.431Z,58.70
2017-09-14T16:11:49.673Z,57.80
2017-09-14T16:14:18.942Z,57.30
2017-09-14T16:16:49.255Z,59.10
2017-09-14T16:19:18.588Z,59.10
2017-09-14T16:21:47.845Z,59.10
2017-09-14T16:24:17.103Z,59.60
2017-09-14T16:26:46.341Z,60.80
2017-09-14T16:29:15.588Z,61.80
2017-09-14T16:31:44.854Z,65.70
2017-09-14T16:34:14.121Z,69.20
2017-09-14T16:36:43.368Z,69.60
2017-09-14T16:39:12.625Z,71.20
2017-09-14T16:41:41.910Z,71.10
2017-09-14T16:44:11.153Z,72.30
2017-09-14T16:46:40.414Z,74.20
2017-09-14T16:49:09.664Z,74.90
2017-09-14T16:51:38.942Z,75.60
2017-09-14T16:54:08.894Z,76.90
2017-09-14T16:56:38.642Z,76.10
2017-09-14T16:59:07.938Z,76.00
2017-09-14T17:01:37.246Z,77.50
2017-09-14T17:04:07.250Z,77.90
2017-09-14T17:06:36.503Z,78.60
2017-09-14T17:09:05.750Z,79.00
2017-09-14T17:11:34.997Z,79.10
2017-09-14T17:14:04.430Z,77.70
2017-09-14T17:16:33.822Z,78.70
2017-09-14T17:19:03.153Z,78.80
2017-09-14T17:21:32.531Z,77.90
2017-09-14T17:24:01.770Z,78.50
2017-09-14T17:26:31.069Z,78.70
2017-09-14T17:29:00.325Z,77.30
2017-09-14T17:31:29.784Z,77.70
2017-09-14T17:33:59.034Z,79.30
2017-09-14T17:36:28.302Z,79.20
2017-09-14T17:38:57.638Z,79.10
2017-09-14T17:41:26.951Z,79.00
2017-09-14T17:43:57.003Z,79.80
2017-09-14T17:46:26.251Z,79.80
2017-09-14T17:48:55.538Z,80.00
2017-09-14T17:51:24.830Z,81.60
2017-09-14T17:53:54.420Z,79.40
2017-09-14T17:56:23.812Z,79.30
2017-09-14T17:58:53.939Z,80.30
2017-09-14T18:01:23.226Z,80.30
2017-09-14T18:03:53.104Z,79.20
2017-09-14T18:06:22.431Z,80.40
2017-09-14T18:08:52.460Z,81.60
2017-09-14T18:11:21.854Z,81.50
2017-09-14T18:13:51.917Z,82.20
2017-09-14T18:16:21.190Z,82.20
2017-09-14T18:18:50.475Z,81.60
2017-09-14T18:21:20.491Z,82.00
2017-09-14T18:23:49.746Z,82.00
2017-09-14T18:26:19.034Z,81.30
2017-09-14T18:28:48.301Z,81.10
2017-09-14T18:31:18.325Z,82.10
2017-09-14T18:33:47.700Z,82.00
2017-09-14T18:36:16.971Z,81.90
2017-09-14T18:38:46.232Z,82.50
2017-09-14T18:41:15.482Z,82.50
2017-09-14T18:43:44.740Z,83.50
2017-09-14T18:46:14.013Z,84.80
2017-09-14T18:48:43.346Z,83.30
2017-09-14T18:51:12.601Z,84.20
2017-09-14T18:53:41.882Z,84.70
2017-09-14T18:56:11.122Z,85.80
2017-09-14T18:58:41.322Z,84.50
2017-09-14T19:01:10.589Z,84.40
2017-09-14T19:03:39.841Z,85.80
2017-09-14T19:06:09.093Z,85.60
2017-09-14T19:08:38.353Z,86.50
2017-09-14T19:11:07.611Z,86.80
2017-09-14T19:13:36.866Z,84.80
2017-09-14T19:16:06.181Z,85.50
2017-09-14T19:18:35.412Z,85.40
2017-09-14T19:21:04.781Z,85.80
2017-09-14T19:23:34.824Z,86.80
2017-09-14T19:26:04.061Z,86.10
2017-09-14T19:28:33.347Z,86.10
2017-09-14T19:31:02.581Z,85.60
2017-09-14T19:33:31.868Z,86.20
2017-09-14T19:36:01.893Z,85.40
2017-09-14T19:38:31.207Z,85.30
2017-09-14T19:41:00.462Z,85.80
2017-09-14T19:43:29.704Z,85.40
2017-09-14T19:45:58.983Z,85.90
2017-09-14T19:48:28.309Z,85.80
2017-09-14T19:50:57.563Z,85.50
2017-09-14T19:53:26.909Z,85.30
2017-09-14T19:55:56.410Z,85.70
2017-09-14T19:58:26.455Z,86.00
2017-09-14T20:00:55.709Z,86.00
2017-09-14T20:03:24.987Z,86.80
2017-09-14T20:05:54.435Z,86.40
2017-09-14T20:08:23.634Z,86.20
2017-09-14T20:10:52.908Z,85.60
2017-09-14T20:13:22.154Z,86.10
2017-09-14T20:15:51.415Z,86.10
2017-09-14T20:18:20.745Z,85.70
2017-09-14T20:20:49.974Z,84.90
2017-09-14T20:23:20.002Z,86.00
2017-09-14T20:25:49.263Z,86.30
2017-09-14T20:28:18.568Z,86.40
2017-09-14T20:30:48.586Z,85.50
2017-09-14T20:33:17.846Z,85.40
2017-09-14T20:35:47.114Z,85.20
2017-09-14T20:38:16.363Z,87.80
2017-09-14T20:40:45.602Z,88.60
2017-09-14T20:43:14.874Z,88.00
2017-09-14T20:45:44.156Z,87.40
2017-09-14T20:48:13.405Z,87.10
2017-09-14T20:50:42.657Z,87.00
2017-09-14T20:53:11.975Z,86.20
2017-09-14T20:55:42.696Z,86.70
2017-09-14T20:58:11.950Z,86.70
2017-09-14T21:00:41.224Z,86.60
2017-09-14T21:03:10.511Z,87.90
2017-09-14T21:05:39.757Z,88.40
2017-09-14T21:08:09.019Z,88.00
2017-09-14T21:10:38.595Z,87.80
2017-09-14T21:13:07.874Z,88.30
2017-09-14T21:15:37.134Z,88.80
2017-09-14T21:18:06.423Z,88.70
2017-09-14T21:20:36.426Z,89.10
2017-09-14T21:23:05.674Z,89.10
2017-09-14T21:25:35.031Z,89.60
2017-09-14T21:28:04.275Z,89.60
2017-09-14T21:30:33.541Z,89.70
2017-09-14T21:33:03.223Z,89.60
2017-09-14T21:35:32.471Z,89.90
2017-09-14T21:38:01.730Z,89.70
2017-09-14T21:40:31.770Z,89.80
2017-09-14T21:43:01.042Z,89.90
2017-09-14T21:45:30.305Z,90.00
2017-09-14T21:47:59.590Z,90.00
2017-09-14T21:50:28.976Z,89.80
2017-09-14T21:52:58.238Z,90.00
2017-09-14T21:55:27.486Z,89.90
2017-09-14T21:57:56.747Z,90.00
2017-09-14T22:00:26.003Z,90.10
2017-09-14T22:02:55.259Z,90.30
2017-09-14T22:05:24.541Z,90.30
2017-09-14T22:07:53.936Z,90.40
2017-09-14T22:10:23.177Z,90.40
2017-09-14T22:12:52.442Z,90.40
2017-09-14T22:15:21.720Z,90.50
2017-09-14T22:17:50.980Z,90.40
2017-09-14T22:20:20.233Z,90.50
2017-09-14T22:22:49.503Z,90.40
2017-09-14T22:25:19.624Z,90.40
2017-09-14T22:27:48.842Z,90.30
2017-09-14T22:30:18.415Z,90.70
2017-09-14T22:32:48.418Z,90.50
2017-09-14T22:35:17.826Z,90.50
2017-09-14T22:37:47.099Z,90.40
2017-09-14T22:40:16.365Z,90.60
2017-09-14T22:42:45.627Z,90.50
2017-09-14T22:45:14.874Z,90.20
2017-09-14T22:47:44.120Z,90.50
2017-09-14T22:50:13.395Z,90.20
2017-09-14T22:52:42.634Z,90.30
2017-09-14T22:55:11.900Z,90.50
2017-09-14T22:57:41.211Z,90.50
2017-09-14T23:00:10.498Z,90.30
2017-09-14T23:02:39.748Z,90.20
2017-09-14T23:05:09.896Z,90.30
2017-09-14T23:07:39.155Z,90.30
2017-09-14T23:10:08.398Z,90.30
2017-09-14T23:12:37.765Z,90.20
2017-09-14T23:15:07.778Z,90.30
2017-09-14T23:17:37.020Z,90.20
2017-09-14T23:20:06.293Z,90.40
2017-09-14T23:22:36.315Z,90.40
2017-09-14T23:25:05.546Z,90.40
2017-09-14T23:27:34.839Z,90.50
2017-09-14T23:30:04.110Z,90.60
2017-09-14T23:32:34.157Z,90.90
2017-09-14T23:35:03.662Z,90.90
2017-09-14T23:37:32.950Z,90.80
2017-09-14T23:40:02.207Z,90.80
2017-09-14T23:42:31.454Z,90.80
2017-09-14T23:45:00.740Z,90.80
2017-09-14T23:47:30.777Z,90.90
2017-09-14T23:50:00.024Z,90.90
2017-09-14T23:52:29.246Z,91.40
2017-09-14T23:54:58.541Z,91.60
2017-09-14T23:57:27.803Z,91.70
2017-09-14T23:59:57.042Z,91.70
